createdAt,value
2023-02-22T00:05:31.560Z,8.50
2023-02-22T00:11:35.539Z,8.50
2023-02-22T00:17:37.364Z,8.60
2023-02-22T00:23:43.291Z,8.50
2023-02-22T00:29:47.121Z,8.50
2023-02-22T00:35:49.320Z,8.50
2023-02-22T00:41:51.145Z,8.50
2023-02-22T00:47:56.190Z,8.40
2023-02-22T00:53:57.958Z,8.50
2023-02-22T00:59:59.830Z,8.40
2023-02-22T01:06:02.399Z,8.40
2023-02-22T01:12:08.067Z,8.40
2023-02-22T01:18:12.612Z,8.30
2023-02-22T01:24:16.436Z,8.40
2023-02-22T01:30:22.565Z,8.40
2023-02-22T01:43:52.990Z,8.30
2023-02-22T01:49:55.009Z,8.40
2023-02-22T01:55:58.044Z,8.30
2023-02-22T02:02:00.487Z,8.30
2023-02-22T02:08:14.631Z,8.30
2023-02-22T02:14:17.976Z,8.30
2023-02-22T02:20:32.716Z,8.30
2023-02-22T02:27:14.569Z,8.40
2023-02-22T02:33:33.518Z,8.30
2023-02-22T02:40:17.828Z,8.30
2023-02-22T02:46:40.074Z,8.40
2023-02-22T02:52:42.175Z,8.40
2023-02-22T02:58:53.193Z,8.40
2023-02-22T03:05:07.295Z,8.40
2023-02-22T03:11:42.913Z,8.40
2023-02-22T03:17:56.420Z,8.40
2023-02-22T03:24:37.518Z,8.50
2023-02-22T03:30:54.812Z,8.40
2023-02-22T03:37:00.828Z,8.40
2023-02-22T03:43:16.827Z,8.50
2023-02-22T03:57:34.806Z,8.40
2023-02-22T04:03:42.288Z,8.40
2023-02-22T04:09:44.337Z,8.40
2023-02-22T04:15:46.819Z,8.40
2023-02-22T04:21:48.734Z,8.40
2023-02-22T04:27:56.551Z,8.40
2023-02-22T04:34:09.979Z,8.50
2023-02-22T04:40:16.747Z,8.40
2023-02-22T04:46:19.879Z,8.40
2023-02-22T04:52:22.446Z,8.40
2023-02-22T04:58:24.276Z,8.40
2023-02-22T05:04:26.136Z,8.50
2023-02-22T05:10:27.940Z,8.50
2023-02-22T05:16:29.819Z,8.40
2023-02-22T05:22:31.550Z,8.30
2023-02-22T05:28:33.592Z,8.30
2023-02-22T05:34:35.369Z,8.20
2023-02-22T05:40:37.089Z,8.10
2023-02-22T05:46:38.962Z,8.10
2023-02-22T05:52:40.915Z,8.10
2023-02-22T05:58:42.640Z,8.00
2023-02-22T06:04:45.645Z,8.00
2023-02-22T06:10:47.358Z,8.00
2023-02-22T06:16:53.621Z,8.10
2023-02-22T06:22:57.666Z,8.10
2023-02-22T06:28:59.436Z,8.20
2023-02-22T06:35:01.232Z,8.30
2023-02-22T06:41:02.958Z,8.40
2023-02-22T06:47:04.773Z,8.50
2023-02-22T06:53:06.588Z,8.60
2023-02-22T06:59:08.618Z,8.60
2023-02-22T07:05:13.020Z,8.60
2023-02-22T07:11:15.666Z,8.60
2023-02-22T07:17:17.464Z,8.60
2023-02-22T07:23:19.290Z,8.90
2023-02-22T07:29:22.498Z,9.00
2023-02-22T07:35:26.044Z,9.30
2023-02-22T07:41:27.835Z,9.40
2023-02-22T07:47:29.582Z,9.50
2023-02-22T07:53:33.567Z,9.70
2023-02-22T07:59:35.325Z,10.10
2023-02-22T08:05:39.147Z,10.30
2023-02-22T08:11:41.680Z,10.30
2023-02-22T08:17:43.442Z,10.30
2023-02-22T08:23:45.183Z,10.30
2023-02-22T08:29:47.969Z,10.30
2023-02-22T08:35:50.228Z,10.50
2023-02-22T08:41:52.016Z,10.60
2023-02-22T08:47:54.087Z,10.80
2023-02-22T08:53:55.896Z,10.70
2023-02-22T08:59:57.674Z,10.80
2023-02-22T09:05:59.577Z,11.00
2023-02-22T09:12:02.143Z,11.00
2023-02-22T09:18:06.205Z,11.20
2023-02-22T09:24:08.763Z,11.30
2023-02-22T09:30:25.495Z,11.30
2023-02-22T09:36:27.314Z,11.50
2023-02-22T09:42:34.495Z,11.80
2023-02-22T09:48:44.470Z,11.70
2023-02-22T09:54:51.980Z,11.80
2023-02-22T10:01:05.137Z,11.90
2023-02-22T10:07:15.835Z,12.10
2023-02-22T10:13:27.655Z,12.40
2023-02-22T10:19:44.187Z,12.80
2023-02-22T10:25:52.599Z,12.90
2023-02-22T10:31:59.926Z,13.00
2023-02-22T10:38:23.404Z,13.20
2023-02-22T10:44:25.177Z,13.40
2023-02-22T10:50:29.588Z,13.50
2023-02-22T10:56:31.364Z,13.70
2023-02-22T11:02:35.796Z,13.80
2023-02-22T11:08:38.148Z,13.90
2023-02-22T11:14:39.893Z,14.20
2023-02-22T11:20:41.779Z,14.20
2023-02-22T11:26:46.773Z,14.20
2023-02-22T11:32:54.555Z,14.40
2023-02-22T11:38:59.950Z,14.60
2023-02-22T11:45:21.541Z,14.60
2023-02-22T11:51:49.582Z,14.50
2023-02-22T11:58:08.326Z,14.70
2023-02-22T12:04:53.050Z,14.80
2023-02-22T12:11:19.462Z,14.90
2023-02-22T12:17:39.074Z,14.80
2023-02-22T12:23:55.956Z,15.10
2023-02-22T12:30:18.163Z,15.20
2023-02-22T12:36:24.914Z,15.60
2023-02-22T12:42:53.402Z,15.70
2023-02-22T12:49:15.445Z,15.90
2023-02-22T12:55:25.270Z,16.00
2023-02-22T13:01:40.401Z,15.90
2023-02-22T13:08:02.464Z,15.90
2023-02-22T13:14:41.416Z,16.10
2023-02-22T13:20:51.270Z,16.20
2023-02-22T13:27:01.770Z,16.00
2023-02-22T13:33:28.720Z,16.10
2023-02-22T13:39:45.973Z,16.40
2023-02-22T13:46:00.167Z,16.30
2023-02-22T13:52:07.138Z,16.20
2023-02-22T13:58:12.247Z,16.20
2023-02-22T14:04:37.105Z,16.20
2023-02-22T14:10:45.330Z,16.50
2023-02-22T14:17:19.215Z,16.60
2023-02-22T14:23:31.423Z,16.70
2023-02-22T14:29:33.243Z,16.80
2023-02-22T14:35:49.952Z,16.70
2023-02-22T14:42:06.476Z,16.60
2023-02-22T14:48:16.244Z,16.20
2023-02-22T14:54:39.858Z,15.80
2023-02-22T15:00:45.869Z,15.60
2023-02-22T15:06:49.413Z,15.50
2023-02-22T15:13:10.608Z,15.20
2023-02-22T15:19:12.403Z,15.10
2023-02-22T15:25:14.273Z,14.90
2023-02-22T15:31:22.701Z,14.70
2023-02-22T15:37:25.819Z,14.50
2023-02-22T15:43:28.642Z,14.40
2023-02-22T15:49:35.588Z,14.30
2023-02-22T15:55:41.591Z,14.10
2023-02-22T16:01:45.817Z,13.80
2023-02-22T16:07:50.951Z,13.50
2023-02-22T16:13:54.177Z,13.20
2023-02-22T16:19:57.283Z,12.90
2023-02-22T16:26:05.305Z,12.60
2023-02-22T16:32:07.332Z,12.30
2023-02-22T16:38:16.894Z,12.00
2023-02-22T16:44:18.963Z,11.90
2023-02-22T16:50:22.044Z,11.90
2023-02-22T16:56:30.833Z,11.80
2023-02-22T17:02:32.907Z,11.60
2023-02-22T17:08:34.657Z,11.50
2023-02-22T17:14:36.781Z,11.40
2023-02-22T17:20:38.509Z,11.20
2023-02-22T17:26:41.394Z,11.00
2023-02-22T17:32:43.654Z,10.90
2023-02-22T17:38:45.409Z,10.80
2023-02-22T17:44:47.165Z,10.80
2023-02-22T17:50:51.837Z,10.80
2023-02-22T17:56:57.918Z,10.60
2023-02-22T18:03:25.421Z,10.60
2023-02-22T18:09:28.463Z,10.60
2023-02-22T18:15:35.522Z,10.50
2023-02-22T18:21:38.739Z,10.50
2023-02-22T18:27:44.727Z,10.50
2023-02-22T18:33:49.468Z,10.50
2023-02-22T18:39:51.721Z,10.40
2023-02-22T18:45:53.891Z,10.40
2023-02-22T18:51:55.850Z,10.30
2023-02-22T18:57:57.759Z,10.30
2023-02-22T19:04:00.763Z,10.20
2023-02-22T19:10:04.025Z,10.20
2023-02-22T19:16:08.852Z,10.20
2023-02-22T19:22:15.106Z,10.10
2023-02-22T19:28:17.270Z,10.10
2023-02-22T19:34:22.074Z,10.10
2023-02-22T19:40:24.947Z,10.10
2023-02-22T19:46:26.934Z,10.10
2023-02-22T19:52:29.014Z,9.90
2023-02-22T19:58:32.526Z,9.80
2023-02-22T20:04:36.382Z,9.70
2023-02-22T20:10:40.073Z,9.60
2023-02-22T20:16:41.875Z,9.60
2023-02-22T20:22:44.774Z,9.50
2023-02-22T20:28:46.863Z,9.40
2023-02-22T20:34:48.767Z,9.40
2023-02-22T20:40:50.526Z,9.40
2023-02-22T20:46:52.345Z,9.10
2023-02-22T20:52:54.169Z,9.00
2023-02-22T20:59:01.746Z,8.90
2023-02-22T21:05:03.991Z,8.90
2023-02-22T21:11:11.558Z,9.00
2023-02-22T21:17:13.569Z,9.00
2023-02-22T21:23:16.338Z,9.10
2023-02-22T21:29:22.035Z,9.10
2023-02-22T21:35:25.360Z,9.10
2023-02-22T21:41:31.237Z,9.10
2023-02-22T21:47:37.140Z,9.00
2023-02-22T21:53:39.072Z,9.00
2023-02-22T21:59:41.306Z,9.00
2023-02-22T22:05:46.133Z,9.10
2023-02-22T22:12:06.395Z,9.00
2023-02-22T22:18:08.452Z,8.90
2023-02-22T22:24:11.024Z,8.90
2023-02-22T22:30:13.290Z,8.80
2023-02-22T22:36:16.846Z,8.70
2023-02-22T22:42:18.824Z,8.60
2023-02-22T22:48:22.710Z,8.60
2023-02-22T22:54:24.584Z,8.50
2023-02-22T23:00:30.136Z,8.40
2023-02-22T23:06:34.724Z,8.30
2023-02-22T23:12:37.300Z,8.10
2023-02-22T23:18:43.159Z,7.90
2023-02-22T23:24:45.525Z,7.70
2023-02-22T23:30:47.381Z,7.50
2023-02-22T23:36:50.463Z,7.20
2023-02-22T23:42:55.890Z,7.10
2023-02-22T23:49:01.635Z,6.90
2023-02-22T23:55:05.549Z,6.80
